Time;durP1;ratioP1;P1;durP2;ratioP2;P2;SDS_P1;SDS_P2;PMS_P1;PMS_P2;Temp;Humidity;BMP_temperature;BMP_pressure;BME280_temperature;BME280_humidity;BME280_pressure;Samples;Min_cycle;Max_cycle;Signal;HPM_P1;HPM_P2
2022/08/23 00:01:48;;;;;;;0.30;0.30;;;;;;;;;;7388702;19;20137;-72
2022/08/23 00:04:22;;;;;;;0.30;0.30;;;;;;;;;;7378978;19;20149;-72
2022/08/23 00:06:49;;;;;;;0.90;0.85;;;;;;;;;;7380533;19;20162;-72
2022/08/23 00:09:15;;;;;;;0.30;0.30;;;;;;;;;;7388285;19;20484;-72
2022/08/23 00:11:53;;;;;;;0.30;0.30;;;;;;;;;;7384482;19;20148;-72
2022/08/23 00:14:28;;;;;;;0.30;0.30;;;;;;;;;;7379754;19;20171;-72
2022/08/23 00:16:55;;;;;;;0.20;0.20;;;;;;;;;;7379994;19;20518;-72
2022/08/23 00:19:21;;;;;;;0.20;0.20;;;;;;;;;;7383265;19;20133;-72
2022/08/23 00:21:47;;;;;;;0.30;0.30;;;;;;;;;;7386752;19;20140;-72
2022/08/23 00:24:14;;;;;;;0.20;0.20;;;;;;;;;;7384278;19;20662;-71
2022/08/23 00:26:56;;;;;;;0.30;0.30;;;;;;;;;;7371533;19;20474;-72
2022/08/23 00:29:26;;;;;;;0.30;0.30;;;;;;;;;;7377027;19;20609;-72
2022/08/23 00:31:52;;;;;;;0.50;0.50;;;;;;;;;;7377813;19;20549;-73
2022/08/23 00:34:17;;;;;;;0.30;0.30;;;;;;;;;;7377491;19;20192;-72
2022/08/23 00:36:43;;;;;;;0.30;0.30;;;;;;;;;;7387207;19;20144;-73
2022/08/23 00:39:10;;;;;;;0.30;0.30;;;;;;;;;;7378374;19;20148;-72
2022/08/23 00:41:36;;;;;;;0.30;0.30;;;;;;;;;;7386718;19;20148;-73
2022/08/23 00:49:35;;;;;;;0.22;0.22;;;;;;;;;;7382130;19;20677;-73
2022/08/23 00:52:06;;;;;;;0.38;0.38;;;;;;;;;;7384716;19;20133;-72
2022/08/23 00:54:32;;;;;;;0.30;0.30;;;;;;;;;;7380016;19;20137;-72
2022/08/23 00:57:00;;;;;;;0.30;0.30;;;;;;;;;;7372696;19;20153;-72
2022/08/23 00:59:26;;;;;;;0.30;0.30;;;;;;;;;;7378497;19;20117;-74
2022/08/23 01:01:51;;;;;;;0.30;0.30;;;;;;;;;;7380030;19;20477;-72
2022/08/23 01:04:17;;;;;;;0.30;0.30;;;;;;;;;;7381436;19;20490;-72
2022/08/23 01:07:05;;;;;;;0.35;0.35;;;;;;;;;;7387210;19;20126;-72
2022/08/23 01:09:30;;;;;;;0.30;0.30;;;;;;;;;;7390231;19;20152;-72
2022/08/23 01:12:04;;;;;;;0.30;0.30;;;;;;;;;;7387574;19;20471;-74
2022/08/23 01:14:31;;;;;;;0.55;0.55;;;;;;;;;;7390634;19;20464;-74
2022/08/23 01:17:17;;;;;;;0.30;0.30;;;;;;;;;;7389595;19;20125;-71
2022/08/23 01:19:48;;;;;;;0.30;0.30;;;;;;;;;;7390179;19;20216;-72
2022/08/23 01:22:24;;;;;;;0.30;0.30;;;;;;;;;;7392252;19;20168;-71
2022/08/23 01:24:50;;;;;;;0.30;0.30;;;;;;;;;;7385417;19;20705;-71
2022/08/23 01:27:15;;;;;;;0.30;0.30;;;;;;;;;;7395190;19;20135;-71
2022/08/23 01:29:41;;;;;;;0.50;0.50;;;;;;;;;;7390614;19;20599;-72
2022/08/23 01:32:07;;;;;;;0.30;0.30;;;;;;;;;;7387056;19;20180;-71
2022/08/23 01:34:33;;;;;;;0.30;0.30;;;;;;;;;;7385171;19;20603;-72
2022/08/23 01:37:00;;;;;;;0.40;0.40;;;;;;;;;;7386992;19;20155;-73
2022/08/23 01:39:26;;;;;;;0.30;0.30;;;;;;;;;;7391181;19;20500;-71
2022/08/23 01:41:51;;;;;;;0.40;0.40;;;;;;;;;;7387111;19;20153;-71
2022/08/23 01:44:17;;;;;;;0.52;0.52;;;;;;;;;;7383944;19;20156;-71
2022/08/23 01:46:44;;;;;;;0.30;0.30;;;;;;;;;;7385088;19;20133;-71
2022/08/23 01:49:09;;;;;;;0.50;0.50;;;;;;;;;;7386486;19;20128;-71
2022/08/23 01:51:36;;;;;;;0.30;0.30;;;;;;;;;;7386750;19;20148;-71
2022/08/23 01:54:02;;;;;;;0.20;0.20;;;;;;;;;;7384198;19;20262;-71
2022/08/23 01:56:28;;;;;;;0.50;0.50;;;;;;;;;;7387762;19;20133;-71
2022/08/23 01:58:53;;;;;;;0.38;0.38;;;;;;;;;;7388854;19;20159;-72
2022/08/23 02:01:19;;;;;;;0.30;0.30;;;;;;;;;;7388887;19;20121;-71
2022/08/23 02:03:44;;;;;;;0.30;0.30;;;;;;;;;;7385941;19;20176;-71
2022/08/23 02:06:10;;;;;;;0.30;0.30;;;;;;;;;;7392146;19;20137;-72
2022/08/23 02:11:21;;;;;;;0.30;0.30;;;;;;;;;;7385460;19;20980;-71
2022/08/23 02:13:48;;;;;;;0.20;0.20;;;;;;;;;;7382582;19;20140;-72
2022/08/23 02:16:26;;;;;;;0.30;0.30;;;;;;;;;;7382697;19;20153;-71
2022/08/23 02:18:53;;;;;;;0.30;0.30;;;;;;;;;;7381354;19;20427;-71
2022/08/23 02:21:18;;;;;;;0.43;0.43;;;;;;;;;;7387395;19;20136;-72
2022/08/23 02:23:44;;;;;;;0.30;0.30;;;;;;;;;;7390814;19;20646;-71
2022/08/23 02:26:10;;;;;;;0.75;0.75;;;;;;;;;;7388143;19;20161;-71
2022/08/23 02:28:35;;;;;;;0.30;0.30;;;;;;;;;;7377199;19;20196;-72
2022/08/23 02:31:01;;;;;;;0.30;0.30;;;;;;;;;;7383506;19;20201;-73
2022/08/23 02:33:26;;;;;;;0.30;0.30;;;;;;;;;;7385405;19;20166;-72
2022/08/23 02:35:51;;;;;;;0.30;0.30;;;;;;;;;;7388517;19;20468;-71
2022/08/23 02:38:17;;;;;;;0.30;0.30;;;;;;;;;;7383399;19;20132;-71
2022/08/23 02:40:42;;;;;;;0.43;0.43;;;;;;;;;;7386183;19;20486;-71
2022/08/23 02:43:09;;;;;;;0.25;0.25;;;;;;;;;;7390618;19;20502;-71
2022/08/23 02:45:35;;;;;;;0.30;0.30;;;;;;;;;;7386436;19;20632;-71
2022/08/23 02:48:00;;;;;;;0.30;0.30;;;;;;;;;;7386720;19;20224;-72
2022/08/23 02:50:26;;;;;;;0.20;0.20;;;;;;;;;;7378465;19;20145;-72
2022/08/23 02:52:53;;;;;;;0.30;0.30;;;;;;;;;;7387868;19;20630;-72
2022/08/23 02:55:19;;;;;;;0.30;0.30;;;;;;;;;;7380687;19;20165;-71
2022/08/23 02:57:44;;;;;;;0.30;0.30;;;;;;;;;;7387004;19;20117;-71
2022/08/23 03:00:11;;;;;;;0.60;0.60;;;;;;;;;;7386359;19;20140;-71
2022/08/23 03:02:36;;;;;;;0.20;0.20;;;;;;;;;;7383400;19;20184;-71
2022/08/23 03:05:06;;;;;;;0.30;0.30;;;;;;;;;;7382253;19;20517;-71
2022/08/23 03:07:31;;;;;;;0.30;0.30;;;;;;;;;;7386709;19;20175;-71
2022/08/23 03:09:56;;;;;;;0.30;0.30;;;;;;;;;;7384242;19;20117;-71
2022/08/23 03:12:22;;;;;;;0.30;0.30;;;;;;;;;;7385727;19;20156;-71
2022/08/23 03:14:50;;;;;;;0.30;0.30;;;;;;;;;;7387526;19;20121;-71
2022/08/23 03:17:16;;;;;;;0.30;0.30;;;;;;;;;;7382826;19;20132;-71
2022/08/23 03:19:41;;;;;;;0.40;0.40;;;;;;;;;;7385518;19;20141;-71
2022/08/23 03:22:07;;;;;;;0.30;0.30;;;;;;;;;;7381223;19;20191;-72
2022/08/23 03:24:32;;;;;;;0.30;0.30;;;;;;;;;;7388212;19;20143;-71
2022/08/23 03:26:57;;;;;;;0.20;0.20;;;;;;;;;;7384509;19;20224;-73
2022/08/23 03:29:24;;;;;;;0.30;0.30;;;;;;;;;;7384964;19;20227;-73
2022/08/23 03:31:50;;;;;;;0.30;0.30;;;;;;;;;;7385022;19;20169;-72
2022/08/23 03:34:16;;;;;;;0.28;0.28;;;;;;;;;;7381013;19;20470;-71
2022/08/23 03:36:41;;;;;;;0.30;0.30;;;;;;;;;;7386823;19;20140;-71
2022/08/23 03:39:07;;;;;;;0.30;0.30;;;;;;;;;;7386162;19;20150;-71
2022/08/23 03:41:33;;;;;;;0.30;0.30;;;;;;;;;;7384493;19;20591;-71
2022/08/23 03:43:58;;;;;;;0.20;0.20;;;;;;;;;;7379647;19;20153;-72
2022/08/23 03:46:23;;;;;;;0.45;0.45;;;;;;;;;;7387701;19;20486;-71
2022/08/23 03:48:55;;;;;;;0.30;0.30;;;;;;;;;;7382253;19;20615;-73
2022/08/23 03:51:22;;;;;;;0.20;0.20;;;;;;;;;;7384929;19;20140;-71
2022/08/23 03:53:48;;;;;;;0.20;0.20;;;;;;;;;;7384019;19;20152;-71
2022/08/23 03:56:24;;;;;;;0.20;0.20;;;;;;;;;;7383162;19;20145;-71
2022/08/23 03:58:50;;;;;;;0.30;0.30;;;;;;;;;;7381869;19;20126;-71
2022/08/23 04:01:16;;;;;;;0.52;0.52;;;;;;;;;;7386302;19;20650;-71
2022/08/23 04:03:42;;;;;;;0.30;0.30;;;;;;;;;;7384164;19;20144;-71
2022/08/23 04:06:08;;;;;;;0.30;0.30;;;;;;;;;;7390543;19;20133;-71
2022/08/23 04:08:33;;;;;;;0.30;0.30;;;;;;;;;;7385052;19;20465;-71
2022/08/23 04:10:58;;;;;;;0.30;0.30;;;;;;;;;;7386719;19;20167;-71
2022/08/23 04:13:24;;;;;;;0.40;0.40;;;;;;;;;;7389617;19;20145;-71
2022/08/23 04:15:49;;;;;;;0.30;0.30;;;;;;;;;;7381877;19;20501;-71
2022/08/23 04:18:15;;;;;;;0.30;0.30;;;;;;;;;;7387666;19;20121;-71
2022/08/23 04:20:41;;;;;;;0.30;0.30;;;;;;;;;;7390515;19;20140;-71
2022/08/23 04:23:07;;;;;;;0.30;0.30;;;;;;;;;;7387825;19;20591;-72
2022/08/23 04:25:32;;;;;;;0.65;0.60;;;;;;;;;;7386538;19;20196;-71
2022/08/23 04:27:57;;;;;;;0.20;0.20;;;;;;;;;;7378201;19;20597;-72
2022/08/23 04:30:23;;;;;;;0.43;0.43;;;;;;;;;;7387105;19;20152;-71
2022/08/23 04:32:48;;;;;;;0.22;0.22;;;;;;;;;;7386661;19;20195;-71
2022/08/23 04:35:14;;;;;;;0.30;0.30;;;;;;;;;;7389992;19;20209;-72
2022/08/23 04:37:40;;;;;;;0.30;0.30;;;;;;;;;;7389269;19;20488;-71
2022/08/23 04:42:49;;;;;;;0.20;0.20;;;;;;;;;;7395660;19;20166;-71
2022/08/23 04:45:15;;;;;;;0.30;0.30;;;;;;;;;;7393003;19;20729;-73
2022/08/23 04:47:43;;;;;;;0.40;0.40;;;;;;;;;;7387741;19;20151;-72
2022/08/23 04:50:08;;;;;;;0.20;0.20;;;;;;;;;;7388718;19;20133;-73
2022/08/23 04:52:33;;;;;;;0.30;0.30;;;;;;;;;;7385000;19;20140;-73
2022/08/23 16:46:11;;;;;;;0.55;0.45;;;;;;;;;;7378606;19;20550;-72
2022/08/23 16:48:37;;;;;;;0.43;0.43;;;;;;;;;;7382994;19;20133;-75
2022/08/23 16:51:02;;;;;;;0.40;0.40;;;;;;;;;;7378817;19;20146;-75
2022/08/23 16:53:27;;;;;;;1.42;1.40;;;;;;;;;;7373456;19;20145;-75
2022/08/23 16:55:53;;;;;;;0.50;0.50;;;;;;;;;;7365705;19;20619;-75
2022/08/23 16:58:20;;;;;;;0.32;0.32;;;;;;;;;;7368402;19;20168;-75
2022/08/23 17:00:46;;;;;;;0.85;0.85;;;;;;;;;;7358473;19;20670;-75
2022/08/23 17:03:11;;;;;;;0.45;0.45;;;;;;;;;;7371768;19;20169;-75
2022/08/23 17:05:37;;;;;;;0.60;0.60;;;;;;;;;;7374302;19;20124;-75
2022/08/23 17:08:03;;;;;;;0.40;0.40;;;;;;;;;;7378282;19;20206;-75
2022/08/23 17:10:29;;;;;;;0.40;0.40;;;;;;;;;;7356111;19;20207;-75
2022/08/23 17:12:56;;;;;;;0.47;0.47;;;;;;;;;;7378436;19;20188;-74
2022/08/23 17:15:27;;;;;;;0.30;0.30;;;;;;;;;;7380377;19;20129;-75
2022/08/23 17:17:52;;;;;;;0.30;0.30;;;;;;;;;;7372145;19;20618;-75
2022/08/23 17:20:20;;;;;;;1.10;1.02;;;;;;;;;;7373988;19;20129;-75
2022/08/23 17:22:46;;;;;;;0.70;0.70;;;;;;;;;;7353271;19;20643;-75
2022/08/23 17:25:12;;;;;;;0.40;0.40;;;;;;;;;;7382665;19;20125;-74
2022/08/23 17:27:39;;;;;;;0.52;0.52;;;;;;;;;;7382033;19;20144;-75
2022/08/23 17:30:06;;;;;;;0.68;0.68;;;;;;;;;;7377981;19;20152;-75
2022/08/23 17:32:31;;;;;;;0.50;0.50;;;;;;;;;;7377474;19;20172;-75
2022/08/23 17:34:57;;;;;;;0.40;0.40;;;;;;;;;;7377735;19;20132;-75
2022/08/23 17:37:22;;;;;;;0.30;0.30;;;;;;;;;;7382743;19;20124;-74
2022/08/23 17:39:49;;;;;;;0.30;0.30;;;;;;;;;;7370907;19;20148;-75
2022/08/23 17:42:14;;;;;;;0.50;0.50;;;;;;;;;;7362329;19;20149;-75
2022/08/23 17:44:39;;;;;;;0.40;0.40;;;;;;;;;;7380672;19;20132;-75
2022/08/23 17:47:07;;;;;;;0.60;0.60;;;;;;;;;;7368874;19;20117;-75
2022/08/23 17:49:33;;;;;;;0.57;0.57;;;;;;;;;;7375216;19;20125;-75
2022/08/23 17:51:58;;;;;;;0.30;0.30;;;;;;;;;;7380296;19;20748;-75
2022/08/23 17:54:23;;;;;;;0.30;0.30;;;;;;;;;;7376392;19;20493;-75
2022/08/23 17:56:48;;;;;;;0.60;0.60;;;;;;;;;;7363290;19;20725;-75
2022/08/23 17:59:14;;;;;;;0.35;0.35;;;;;;;;;;7381060;19;20148;-75
2022/08/23 18:01:39;;;;;;;0.52;0.52;;;;;;;;;;7382358;19;20129;-75
2022/08/23 18:04:05;;;;;;;0.40;0.40;;;;;;;;;;7378214;19;20545;-75
2022/08/23 18:06:31;;;;;;;0.35;0.35;;;;;;;;;;7387045;19;20611;-74
2022/08/23 18:08:56;;;;;;;0.40;0.40;;;;;;;;;;7365933;19;20603;-75
2022/08/23 18:11:22;;;;;;;0.30;0.30;;;;;;;;;;7374178;19;20133;-75
2022/08/23 18:13:47;;;;;;;0.40;0.40;;;;;;;;;;7375932;19;20212;-75
2022/08/23 18:16:13;;;;;;;0.32;0.32;;;;;;;;;;7371214;19;20562;-75
2022/08/23 18:18:39;;;;;;;0.30;0.30;;;;;;;;;;7379469;19;20147;-75
2022/08/23 18:21:06;;;;;;;0.40;0.40;;;;;;;;;;7376586;19;20461;-75
2022/08/23 18:23:31;;;;;;;0.30;0.30;;;;;;;;;;7361720;19;20149;-75
2022/08/23 18:25:57;;;;;;;0.30;0.30;;;;;;;;;;7374737;19;20136;-75
2022/08/23 18:28:22;;;;;;;0.40;0.40;;;;;;;;;;7376269;19;20157;-75
2022/08/23 18:30:51;;;;;;;0.30;0.30;;;;;;;;;;7376880;19;20121;-75
2022/08/23 18:33:19;;;;;;;0.30;0.30;;;;;;;;;;7378251;19;20495;-75
2022/08/23 18:35:44;;;;;;;0.40;0.40;;;;;;;;;;7374280;19;21587;-75
2022/08/23 18:38:13;;;;;;;0.90;0.90;;;;;;;;;;7376400;19;20137;-75
2022/08/23 18:40:46;;;;;;;0.60;0.60;;;;;;;;;;7364355;19;20180;-75
2022/08/23 18:43:17;;;;;;;0.40;0.40;;;;;;;;;;7336459;19;20243;-75
2022/08/23 18:45:44;;;;;;;0.30;0.30;;;;;;;;;;7376540;19;20129;-75
2022/08/23 18:48:11;;;;;;;9.18;1.48;;;;;;;;;;7377512;19;20141;-75
2022/08/23 18:50:37;;;;;;;0.30;0.30;;;;;;;;;;7374299;19;20606;-72
2022/08/23 18:53:02;;;;;;;0.30;0.30;;;;;;;;;;7378543;19;20191;-72
2022/08/23 18:55:27;;;;;;;0.30;0.30;;;;;;;;;;7366449;19;20150;-72
2022/08/23 18:57:53;;;;;;;0.30;0.30;;;;;;;;;;7370757;19;20132;-71
2022/08/23 19:00:19;;;;;;;0.30;0.30;;;;;;;;;;7371248;19;20125;-72
2022/08/23 19:02:45;;;;;;;0.30;0.30;;;;;;;;;;7365846;19;20156;-72
2022/08/23 19:05:10;;;;;;;0.63;0.63;;;;;;;;;;7360426;19;20133;-73
2022/08/23 19:07:36;;;;;;;0.30;0.30;;;;;;;;;;7361414;19;20200;-72
2022/08/23 19:10:01;;;;;;;0.30;0.30;;;;;;;;;;7371448;19;20128;-73
2022/08/23 19:12:27;;;;;;;0.30;0.30;;;;;;;;;;7368774;19;20169;-71
2022/08/23 19:14:53;;;;;;;0.30;0.30;;;;;;;;;;7362484;19;20720;-71
2022/08/23 19:17:18;;;;;;;0.32;0.32;;;;;;;;;;7375701;19;21186;-71
2022/08/23 19:19:44;;;;;;;0.30;0.30;;;;;;;;;;7377417;19;20611;-72
2022/08/23 19:22:09;;;;;;;0.30;0.30;;;;;;;;;;7374656;19;20616;-72
2022/08/23 19:24:34;;;;;;;0.30;0.30;;;;;;;;;;7379723;19;20148;-71
2022/08/23 19:27:00;;;;;;;0.45;0.45;;;;;;;;;;7379090;19;20156;-71
2022/08/23 19:29:25;;;;;;;0.30;0.30;;;;;;;;;;7373705;19;20155;-72
2022/08/23 19:31:51;;;;;;;0.30;0.30;;;;;;;;;;7375680;19;20113;-72
2022/08/23 19:34:18;;;;;;;0.30;0.30;;;;;;;;;;7377305;19;20137;-71
2022/08/23 19:36:45;;;;;;;0.43;0.43;;;;;;;;;;7367107;19;20159;-71
2022/08/23 19:39:11;;;;;;;0.30;0.30;;;;;;;;;;7377499;19;20467;-71
2022/08/23 19:41:38;;;;;;;0.52;0.52;;;;;;;;;;7377182;19;20148;-72
2022/08/23 19:44:04;;;;;;;0.20;0.20;;;;;;;;;;7369185;19;20173;-71
2022/08/23 19:46:30;;;;;;;0.30;0.30;;;;;;;;;;7378202;19;20128;-72
2022/08/23 19:48:56;;;;;;;0.30;0.30;;;;;;;;;;7374273;19;20634;-71
2022/08/23 19:51:23;;;;;;;0.50;0.50;;;;;;;;;;7380728;19;20121;-71
2022/08/23 19:54:04;;;;;;;0.30;0.30;;;;;;;;;;7375425;19;20172;-72
2022/08/23 19:56:34;;;;;;;0.30;0.30;;;;;;;;;;7375967;19;20113;-71
2022/08/23 19:59:01;;;;;;;0.30;0.30;;;;;;;;;;7378843;19;20451;-72
2022/08/23 20:01:27;;;;;;;1.23;0.75;;;;;;;;;;7370729;19;20527;-72
2022/08/23 20:03:52;;;;;;;0.30;0.30;;;;;;;;;;7371921;19;20153;-71
2022/08/23 20:06:17;;;;;;;0.30;0.30;;;;;;;;;;7381364;19;20132;-71
2022/08/23 20:08:43;;;;;;;0.30;0.30;;;;;;;;;;7369697;19;20128;-73
2022/08/23 20:11:09;;;;;;;0.30;0.30;;;;;;;;;;7373766;19;20120;-71
2022/08/23 20:13:34;;;;;;;0.32;0.32;;;;;;;;;;7361263;19;20176;-72
2022/08/23 20:16:00;;;;;;;0.30;0.30;;;;;;;;;;7366507;19;20445;-71
2022/08/23 20:18:25;;;;;;;0.30;0.30;;;;;;;;;;7368369;19;20543;-72
2022/08/23 20:20:52;;;;;;;0.40;0.40;;;;;;;;;;7379257;19;20614;-71
2022/08/23 20:26:02;;;;;;;0.30;0.30;;;;;;;;;;7383580;19;20140;-71
2022/08/23 20:28:27;;;;;;;0.30;0.30;;;;;;;;;;7373958;19;20124;-72
2022/08/23 20:30:52;;;;;;;0.30;0.30;;;;;;;;;;7375733;19;20656;-71
2022/08/23 20:33:17;;;;;;;0.30;0.30;;;;;;;;;;7372826;19;20148;-72
2022/08/23 20:35:43;;;;;;;0.30;0.30;;;;;;;;;;7372474;19;20149;-71
2022/08/23 20:38:08;;;;;;;0.30;0.30;;;;;;;;;;7367251;19;20449;-72
2022/08/23 20:40:34;;;;;;;0.30;0.30;;;;;;;;;;7363386;19;20481;-72
2022/08/23 20:42:59;;;;;;;0.30;0.30;;;;;;;;;;7361752;19;20145;-71
2022/08/23 20:45:24;;;;;;;0.40;0.40;;;;;;;;;;7357359;19;20128;-71
2022/08/23 20:47:50;;;;;;;0.30;0.30;;;;;;;;;;7348482;19;20140;-72
2022/08/23 20:50:16;;;;;;;0.30;0.30;;;;;;;;;;7362651;19;20216;-71
2022/08/23 20:52:41;;;;;;;0.30;0.30;;;;;;;;;;7368935;19;20650;-71
2022/08/23 20:55:07;;;;;;;0.30;0.30;;;;;;;;;;7367832;19;20603;-71
2022/08/23 20:57:32;;;;;;;0.30;0.30;;;;;;;;;;7372280;19;20145;-72
2022/08/23 20:59:59;;;;;;;0.30;0.30;;;;;;;;;;7375928;19;20117;-70
2022/08/23 21:02:24;;;;;;;0.30;0.30;;;;;;;;;;7370379;19;20153;-71
2022/08/23 21:04:49;;;;;;;0.30;0.30;;;;;;;;;;7371362;19;20438;-71
2022/08/23 21:07:15;;;;;;;0.30;0.30;;;;;;;;;;7360532;19;20140;-72
2022/08/23 21:09:40;;;;;;;0.30;0.30;;;;;;;;;;7367734;19;20843;-72
2022/08/23 21:12:06;;;;;;;0.30;0.30;;;;;;;;;;7374561;19;20604;-72
2022/08/23 21:14:31;;;;;;;0.30;0.30;;;;;;;;;;7358373;19;20153;-72
2022/08/23 21:16:56;;;;;;;0.30;0.30;;;;;;;;;;7370871;19;20148;-72
2022/08/23 21:19:22;;;;;;;0.30;0.30;;;;;;;;;;7372620;19;20120;-72
2022/08/23 21:21:47;;;;;;;0.30;0.30;;;;;;;;;;7360141;19;26176;-72
2022/08/23 21:24:13;;;;;;;0.30;0.30;;;;;;;;;;7367074;19;20129;-71
2022/08/23 21:26:39;;;;;;;0.30;0.30;;;;;;;;;;7373999;19;20221;-71
2022/08/23 21:29:06;;;;;;;0.30;0.30;;;;;;;;;;7377735;19;20117;-71
2022/08/23 21:31:31;;;;;;;0.30;0.30;;;;;;;;;;7377621;19;20154;-72
2022/08/23 21:33:59;;;;;;;0.40;0.40;;;;;;;;;;7374266;19;20156;-71
2022/08/23 21:36:24;;;;;;;0.35;0.35;;;;;;;;;;7378634;19;20132;-72
2022/08/23 21:38:49;;;;;;;0.30;0.30;;;;;;;;;;7379554;19;20121;-71
2022/08/23 21:41:37;;;;;;;0.30;0.30;;;;;;;;;;7381587;19;20398;-71
2022/08/23 21:44:04;;;;;;;0.30;0.30;;;;;;;;;;7364787;19;20615;-72
2022/08/23 21:46:30;;;;;;;0.30;0.30;;;;;;;;;;7370243;19;20136;-72
2022/08/23 21:48:55;;;;;;;0.30;0.30;;;;;;;;;;7367266;19;20145;-71
2022/08/23 21:51:21;;;;;;;0.30;0.30;;;;;;;;;;7369097;19;20149;-72
2022/08/23 21:53:46;;;;;;;0.30;0.30;;;;;;;;;;7372885;19;20149;-71
2022/08/23 21:56:12;;;;;;;0.40;0.40;;;;;;;;;;7380994;19;20624;-71
2022/08/23 21:58:38;;;;;;;0.30;0.30;;;;;;;;;;7376962;19;20149;-71
2022/08/23 22:01:05;;;;;;;0.30;0.30;;;;;;;;;;7387011;19;20146;-72
2022/08/23 22:03:30;;;;;;;0.30;0.30;;;;;;;;;;7369012;19;20145;-72
2022/08/23 22:05:56;;;;;;;0.45;0.45;;;;;;;;;;7358530;19;20610;-71
2022/08/23 22:08:21;;;;;;;0.35;0.35;;;;;;;;;;7374525;19;20175;-72
2022/08/23 22:10:48;;;;;;;0.30;0.30;;;;;;;;;;7362040;19;20148;-71
2022/08/23 22:13:13;;;;;;;0.28;0.28;;;;;;;;;;7377878;19;20157;-72
2022/08/23 22:15:39;;;;;;;0.30;0.30;;;;;;;;;;7375945;19;20135;-71
2022/08/23 22:18:04;;;;;;;0.30;0.30;;;;;;;;;;7378570;19;20470;-71
2022/08/23 22:20:31;;;;;;;0.30;0.30;;;;;;;;;;7362990;19;20121;-72
2022/08/23 22:22:57;;;;;;;0.30;0.30;;;;;;;;;;7376165;19;20160;-72
2022/08/23 22:25:22;;;;;;;0.30;0.30;;;;;;;;;;7372440;19;20196;-71
2022/08/23 22:27:48;;;;;;;0.30;0.30;;;;;;;;;;7378354;19;20125;-71
2022/08/23 22:30:14;;;;;;;0.30;0.30;;;;;;;;;;7381424;19;20129;-71
2022/08/23 22:32:40;;;;;;;0.30;0.30;;;;;;;;;;7370020;19;20149;-73
2022/08/23 22:35:07;;;;;;;0.30;0.30;;;;;;;;;;7380986;19;20128;-71
2022/08/23 22:37:33;;;;;;;0.40;0.40;;;;;;;;;;7382965;19;20121;-71
2022/08/23 22:39:59;;;;;;;0.45;0.45;;;;;;;;;;7380107;19;20594;-71
2022/08/23 22:42:24;;;;;;;0.38;0.38;;;;;;;;;;7379051;19;20164;-72
2022/08/23 22:44:49;;;;;;;0.65;0.65;;;;;;;;;;7372121;19;20161;-72
2022/08/23 22:47:15;;;;;;;0.30;0.30;;;;;;;;;;7372299;19;20129;-71
2022/08/23 22:49:40;;;;;;;0.30;0.30;;;;;;;;;;7368654;19;20500;-71
2022/08/23 22:52:05;;;;;;;0.30;0.30;;;;;;;;;;7373203;19;20135;-72
2022/08/23 22:54:31;;;;;;;0.40;0.40;;;;;;;;;;7370251;19;20610;-71
2022/08/23 22:56:57;;;;;;;0.30;0.30;;;;;;;;;;7380672;19;20128;-71
2022/08/23 22:59:23;;;;;;;0.30;0.30;;;;;;;;;;7371898;19;20471;-71
2022/08/23 23:01:52;;;;;;;0.90;0.90;;;;;;;;;;7365948;19;20137;-71
2022/08/23 23:04:20;;;;;;;0.30;0.30;;;;;;;;;;7356705;19;20137;-72
2022/08/23 23:06:46;;;;;;;0.30;0.30;;;;;;;;;;7364428;19;20129;-72
2022/08/23 23:09:12;;;;;;;0.20;0.20;;;;;;;;;;7355045;19;20149;-72
2022/08/23 23:11:38;;;;;;;0.30;0.30;;;;;;;;;;7368588;19;20147;-73
2022/08/23 23:14:04;;;;;;;0.32;0.32;;;;;;;;;;7361632;19;20707;-72
2022/08/23 23:16:30;;;;;;;0.30;0.30;;;;;;;;;;7376477;19;20155;-72
2022/08/23 23:21:46;;;;;;;0.30;0.30;;;;;;;;;;7378540;19;20137;-71
2022/08/23 23:24:13;;;;;;;0.30;0.30;;;;;;;;;;7374106;19;20153;-71
2022/08/23 23:26:39;;;;;;;0.30;0.30;;;;;;;;;;7370260;19;20689;-71
2022/08/23 23:29:08;;;;;;;0.30;0.30;;;;;;;;;;7371638;19;20136;-72
2022/08/23 23:31:34;;;;;;;0.40;0.40;;;;;;;;;;7371060;19;20121;-73
2022/08/23 23:34:00;;;;;;;0.30;0.30;;;;;;;;;;7359266;19;20169;-71
2022/08/23 23:36:25;;;;;;;0.30;0.30;;;;;;;;;;7371840;19;20603;-71
2022/08/23 23:38:51;;;;;;;0.30;0.30;;;;;;;;;;7364523;19;20153;-72
2022/08/23 23:41:16;;;;;;;0.30;0.30;;;;;;;;;;7369273;19;20152;-72
2022/08/23 23:43:42;;;;;;;0.30;0.30;;;;;;;;;;7364386;19;20773;-71
2022/08/23 23:46:09;;;;;;;0.30;0.30;;;;;;;;;;7364353;19;20238;-71
2022/08/23 23:48:36;;;;;;;0.30;0.30;;;;;;;;;;7365117;19;20133;-72
2022/08/23 23:51:06;;;;;;;0.20;0.20;;;;;;;;;;7356785;19;20145;-72
2022/08/23 23:53:32;;;;;;;0.30;0.30;;;;;;;;;;7363951;19;20212;-72
2022/08/23 23:55:59;;;;;;;0.30;0.30;;;;;;;;;;7366688;19;20125;-72
2022/08/23 23:58:24;;;;;;;0.30;0.30;;;;;;;;;;7367229;19;20613;-71
